This is the latest recevied weather packets stored in our database for station/object SQ6XL-13. If no packets are shown the sender has not sent any weather packets the latest 10 day(s).
| Time | Temp. | Humidity | Pressure | Rain* | Wind** | Luminosity | Snow |
|---|---|---|---|---|---|---|---|
| 1787494055 | 18.89° C | 61% | 1021.8 hPa | 0 mm | - | - | - |
| 1787493490 | 19.44° C | 60% | 1021.7 hPa | 0 mm | - | - | - |
| 1787492938 | 19.44° C | 63% | 1021.9 hPa | 0.25 mm | - | - | - |
| 1787492415 | 18.89° C | 62% | 1021.8 hPa | 0.51 mm | - | - | - |
| 1787491824 | 18.89° C | 63% | 1021.8 hPa | 0 mm | - | - | - |
| 1787491270 | 18.89° C | 64% | 1021.9 hPa | 0 mm | - | - | - |
| 1787490790 | 18.33° C | 66% | 1021.9 hPa | 0 mm | - | - | - |
| 1787490275 | 18.89° C | 64% | 1022 hPa | 0 mm | - | - | - |
| 1787489684 | 18.89° C | 63% | 1021.9 hPa | 0 mm | - | - | - |
| 1787489155 | 18.33° C | 65% | 1022 hPa | 0 mm | - | - | - |
| 1787488560 | 18.89° C | 62% | 1021.9 hPa | 0 mm | - | - | - |
| 1787487970 | 19.44° C | 60% | 1022 hPa | 0 mm | - | - | - |
| 1787487400 | 20° C | 58% | 1021.8 hPa | 0 mm | - | - | - |
| 1787486880 | 18.89° C | 64% | 1021.9 hPa | 0 mm | - | - | - |
| 1787486350 | 18.89° C | 66% | 1022 hPa | 0 mm | - | - | - |
| 1787485835 | 18.89° C | 63% | 1021.8 hPa | 0 mm | - | - | - |
| 1787485320 | 18.89° C | 66% | 1021.9 hPa | 0 mm | - | - | - |
| 1787484784 | 18.33° C | 68% | 1021.9 hPa | 0 mm | - | - | - |
| 1787484230 | 17.22° C | 70% | 1022.1 hPa | 0.25 mm | - | - | - |
| 1787483710 | 17.22° C | 70% | 1022 hPa | 0.51 mm | - | - | - |
| 1787483130 | 17.22° C | 71% | 1022 hPa | 0 mm | - | - | - |
| 1787482590 | 16.67° C | 71% | 1022.1 hPa | 0 mm | - | - | - |
| 1787482100 | 16.67° C | 72% | 1022.1 hPa | 0 mm | - | - | - |
| 1787481600 | 16.67° C | 70% | 1022.2 hPa | 0 mm | - | - | - |
| 1787481035 | 16.67° C | 71% | 1022.2 hPa | 0 mm | - | - | - |
* Rain latest hour (hover to see other rain measurements)
** Current wind speed in m/s (hover to see current wind gust speed)